| time (UTC) | temp C | wind direction | speed KPH | gust KPH | rain 1hr cm | rain 24hr cm | rain mn cm | humidity % | barometer mb |
| 20260906225044 | 35 | 173 | 20.9 | 24.1 | 0.00 | 0.00 | 0.00 | 42 | 1091.7 |
| 20260906224540 | 35 | 203 | 9.7 | 16.1 | 0.00 | 0.00 | 0.00 | 43 | 1091.6 |
| 20260906224036 | 33 | 205 | 8.0 | 12.9 | 0.00 | 0.00 | 0.00 | 45 | 1091.7 |
| 20260906223532 | 35 | 183 | 11.3 | 16.1 | 0.00 | 0.00 | 0.00 | 43 | 1091.4 |
| 20260906223031 | 34 | 177 | 17.7 | 24.1 | 0.00 | 0.00 | 0.00 | 43 | 1091.7 |
| 20260906222531 | 33 | 193 | 9.7 | 12.9 | 0.00 | 0.00 | 0.00 | 43 | 1091.6 |
| 20260906222028 | 33 | 7 | 4.8 | 9.7 | 0.00 | 0.00 | 0.00 | 43 | 1091.8 |
| 20260906221527 | 34 | 193 | 9.7 | 11.3 | 0.00 | 0.00 | 0.00 | 44 | 1091.8 |
| 20260906221023 | 35 | 205 | 11.3 | 16.1 | 0.00 | 0.00 | 0.00 | 43 | 1091.7 |
| 20260906220522 | 36 | 202 | 6.4 | 9.7 | 0.00 | 0.00 | 0.00 | 37 | 1091.7 |
| 20260906220018 | 35 | 159 | 6.4 | 6.4 | 0.00 | 0.00 | 0.00 | 39 | 1091.7 |
| 20260906215517 | 34 | 213 | 6.4 | 9.7 | 0.00 | 0.00 | 0.00 | 41 | 1091.7 |
| 20260906215015 | 35 | 198 | 4.8 | 6.4 | 0.00 | 0.00 | 0.00 | 42 | 1091.8 |
| 20260906214514 | 35 | 201 | 6.4 | 9.7 | 0.00 | 0.00 | 0.00 | 40 | 1091.9 |
| 20260906214009 | 35 | 189 | 1.6 | 1.6 | 0.00 | 0.00 | 0.00 | 41 | 1091.9 |
| 20260906213503 | 34 | 178 | 11.3 | 16.1 | 0.00 | 0.00 | 0.00 | 42 | 1091.9 |
| 20260906213003 | 33 | 189 | 6.4 | 6.4 | 0.00 | 0.00 | 0.00 | 43 | 1091.9 |
| 20260906212456 | 33 | 161 | 14.5 | 16.1 | 0.00 | 0.00 | 0.00 | 43 | 1091.9 |
| 20260906211951 | 33 | 176 | 6.4 | 9.7 | 0.00 | 0.00 | 0.00 | 43 | 1092.2 |
| 20260906211446 | 34 | 197 | 8.0 | 12.9 | 0.00 | 0.00 | 0.00 | 42 | 1092.5 |
| 20260906210941 | 34 | 147 | 11.3 | 14.5 | 0.00 | 0.00 | 0.00 | 41 | 1092.5 |
| 20260906210437 | 34 | 160 | 3.2 | 3.2 | 0.00 | 0.00 | 0.00 | 41 | 1092.7 |
| 20260906205930 | 33 | 161 | 1.6 | 1.6 | 0.00 | 0.00 | 0.00 | 42 | 1092.6 |
| 20260906205426 | 34 | 187 | 6.4 | 9.7 | 0.00 | 0.00 | 0.00 | 43 | 1092.4 |
| 20260906204922 | 34 | 173 | 8.0 | 11.3 | 0.00 | 0.00 | 0.00 | 42 | 1092.6 |
| 20260906204421 | 33 | 168 | 4.8 | 4.8 | 0.00 | 0.00 | 0.00 | 43 | 1092.8 |
| 20260906203921 | 33 | 179 | 4.8 | 6.4 | 0.00 | 0.00 | 0.00 | 43 | 1092.8 |
| 20260906203416 | 34 | 171 | 8.0 | 9.7 | 0.00 | 0.00 | 0.00 | 43 | 1092.8 |
| 20260906202914 | 34 | 177 | 9.7 | 14.5 | 0.00 | 0.00 | 0.00 | 43 | 1092.6 |
| 20260906202413 | 33 | 177 | 6.4 | 9.7 | 0.00 | 0.00 | 0.00 | 43 | 1092.7 |
| 20260906201914 | 33 | 126 | 9.7 | 11.3 | 0.00 | 0.00 | 0.00 | 43 | 1092.9 |
| 20260906201408 | 34 | 225 | 8.0 | 12.9 | 0.00 | 0.00 | 0.00 | 42 | 1092.9 |
| 20260906200903 | 34 | 227 | 4.8 | 4.8 | 0.00 | 0.00 | 0.00 | 41 | 1092.7 |
| 20260906200359 | 35 | 166 | 6.4 | 9.7 | 0.00 | 0.00 | 0.00 | 40 | 1093.1 |
| 20260906195853 | 34 | 201 | 1.6 | 1.6 | 0.00 | 0.00 | 0.00 | 40 | 1092.9 |
| 20260906195350 | 33 | 194 | 12.9 | 16.1 | 0.00 | 0.00 | 0.00 | 42 | 1093.1 |
| 20260906194846 | 33 | 208 | 11.3 | 12.9 | 0.00 | 0.00 | 0.00 | 44 | 1093.1 |
| 20260906194341 | 33 | 239 | 8.0 | 9.7 | 0.00 | 0.00 | 0.00 | 44 | 1093.2 |
| 20260906193836 | 33 | 164 | 6.4 | 9.7 | 0.00 | 0.00 | 0.00 | 43 | 1093.1 |
| 20260906193331 | 33 | 186 | 9.7 | 14.5 | 0.00 | 0.00 | 0.00 | 44 | 1093.2 |
| 20260906192827 | 33 | 153 | 11.3 | 14.5 | 0.00 | 0.00 | 0.00 | 44 | 1093.2 |
| 20260906192321 | 33 | 213 | 6.4 | 6.4 | 0.00 | 0.00 | 0.00 | 45 | 1093.4 |
| 20260906191820 | 33 | 162 | 4.8 | 6.4 | 0.00 | 0.00 | 0.00 | 43 | 1093.5 |
| 20260906191315 | 33 | 246 | 12.9 | 14.5 | 0.00 | 0.00 | 0.00 | 42 | 1093.4 |
| 20260906190815 | 33 | 246 | 8.0 | 9.7 | 0.00 | 0.00 | 0.00 | 44 | 1093.3 |
| 20260906190309 | 34 | 212 | 11.3 | 12.9 | 0.00 | 0.00 | 0.00 | 43 | 1093.4 |
| 20260906185808 | 35 | 224 | 12.9 | 14.5 | 0.00 | 0.00 | 0.00 | 41 | 1093.5 |
| 20260906185308 | 33 | 172 | 3.2 | 3.2 | 0.00 | 0.00 | 0.00 | 44 | 1093.6 |
| 20260906184802 | 35 | 164 | 12.9 | 16.1 | 0.00 | 0.00 | 0.00 | 41 | 1093.7 |
| 20260906184257 | 36 | 200 | 3.2 | 3.2 | 0.00 | 0.00 | 0.00 | 38 | 1093.7 |
| 20260906183754 | 33 | 87 | 4.8 | 6.4 | 0.00 | 0.00 | 0.00 | 43 | 1093.7 |
| 20260906183250 | 34 | 171 | 11.3 | 14.5 | 0.00 | 0.00 | 0.00 | 42 | 1094.2 |
| 20260906182749 | 33 | 152 | 6.4 | 9.7 | 0.00 | 0.00 | 0.00 | 45 | 1094.1 |
| 20260906182245 | 33 | 184 | 14.5 | 17.7 | 0.00 | 0.00 | 0.00 | 46 | 1094.2 |
| 20260906181740 | 33 | 208 | 12.9 | 16.1 | 0.00 | 0.00 | 0.00 | 45 | 1094.5 |
| 20260906181237 | 33 | 172 | 1.6 | 1.6 | 0.00 | 0.00 | 0.00 | 45 | 1094.4 |
| 20260906180737 | 33 | 177 | 4.8 | 4.8 | 0.00 | 0.00 | 0.00 | 43 | 1094.3 |
| 20260906180232 | 33 | 176 | 11.3 | 12.9 | 0.00 | 0.00 | 0.00 | 43 | 1094.3 |
| 20260906175729 | 33 | 167 | 4.8 | 4.8 | 0.00 | 0.00 | 0.00 | 45 | 1094.5 |
| 20260906175225 | 33 | 180 | 1.6 | 3.2 | 0.00 | 0.00 | 0.00 | 44 | 1094.9 |
| 20260906174723 | 33 | 192 | 3.2 | 4.8 | 0.00 | 0.00 | 0.00 | 45 | 1094.8 |
| 20260906174218 | 33 | 173 | 0.0 | 1.6 | 0.00 | 0.00 | 0.00 | 44 | 1094.7 |
| 20260906173713 | 35 | 170 | 9.7 | 11.3 | 0.00 | 0.00 | 0.00 | 42 | 1094.8 |
| 20260906173209 | 33 | 178 | 1.6 | 3.2 | 0.00 | 0.00 | 0.00 | 46 | 1095.0 |
| 20260906172708 | 33 | 129 | 1.6 | 3.2 | 0.00 | 0.00 | 0.00 | 44 | 1095.1 |
| 20260906172204 | 32 | 181 | 1.6 | 3.2 | 0.00 | 0.00 | 0.00 | 45 | 1095.2 |
| 20260906171704 | 32 | 156 | 6.4 | 9.7 | 0.00 | 0.00 | 0.00 | 48 | 1095.1 |
| 20260906171159 | 32 | 175 | 8.0 | 9.7 | 0.00 | 0.00 | 0.00 | 47 | 1095.2 |
| 20260906170655 | 32 | 216 | 1.6 | 1.6 | 0.00 | 0.00 | 0.00 | 46 | 1095.1 |
| 20260906170155 | 32 | 190 | 1.6 | 3.2 | 0.00 | 0.00 | 0.00 | 48 | 1095.2 |
| 20260906165651 | 32 | 203 | 6.4 | 9.7 | 0.00 | 0.00 | 0.00 | 47 | 1095.3 |
| 20260906165146 | 33 | 197 | 3.2 | 3.2 | 0.00 | 0.00 | 0.00 | 47 | 1095.1 |
| 20260906164645 | 33 | 157 | 1.6 | 1.6 | 0.00 | 0.00 | 0.00 | 45 | 1095.6 |
| 20260906164141 | 33 | 175 | 4.8 | 6.4 | 0.00 | 0.00 | 0.00 | 44 | 1095.4 |
| 20260906163636 | 32 | 165 | 0.0 | 1.6 | 0.00 | 0.00 | 0.00 | 53 | 1095.4 |
| 20260906163132 | 33 | 164 | 4.8 | 9.7 | 0.00 | 0.00 | 0.00 | 46 | 1095.1 |
| 20260906162629 | 32 | 145 | 1.6 | 1.6 | 0.00 | 0.00 | 0.00 | 50 | 1095.3 |
| 20260906162129 | 31 | 183 | 1.6 | 3.2 | 0.00 | 0.00 | 0.00 | 53 | 1095.1 |
| 20260906161629 | 30 | 218 | 3.2 | 3.2 | 0.00 | 0.00 | 0.00 | 56 | 1095.6 |
| 20260906161128 | 31 | 175 | 1.6 | 1.6 | 0.00 | 0.00 | 0.00 | 55 | 1095.4 |
| 20260906160627 | 31 | 202 | 3.2 | 3.2 | 0.00 | 0.00 | 0.00 | 55 | 1095.2 |
| 20260906160126 | 31 | 275 | 1.6 | 1.6 | 0.00 | 0.00 | 0.00 | 57 | 1095.3 |
| 20260906155624 | 31 | 164 | 1.6 | 1.6 | 0.00 | 0.00 | 0.00 | 56 | 1095.3 |
| 20260906155120 | 31 | 138 | 0.0 | 0.0 | 0.00 | 0.00 | 0.00 | 56 | 1095.3 |
| 20260906154615 | 31 | 211 | 6.4 | 9.7 | 0.00 | 0.00 | 0.00 | 57 | 1095.3 |
| 20260906154114 | 30 | 219 | 8.0 | 9.7 | 0.00 | 0.00 | 0.00 | 58 | 1095.3 |
| 20260906153614 | 30 | 166 | 0.0 | 1.6 | 0.00 | 0.00 | 0.00 | 58 | 1095.2 |
| 20260906153109 | 30 | 276 | 6.4 | 6.4 | 0.00 | 0.00 | 0.00 | 59 | 1095.2 |
| 20260906152609 | 30 | 135 | 4.8 | 4.8 | 0.00 | 0.00 | 0.00 | 59 | 1095.1 |
| 20260906152103 | 29 | 217 | 4.8 | 4.8 | 0.00 | 0.00 | 0.00 | 62 | 1095.2 |
| 20260906151558 | 29 | 111 | 1.6 | 1.6 | 0.00 | 0.00 | 0.00 | 63 | 1095.2 |
| 20260906151054 | 28 | 144 | 1.6 | 1.6 | 0.00 | 0.00 | 0.00 | 64 | 1095.1 |
| 20260906150549 | 29 | 183 | 1.6 | 1.6 | 0.00 | 0.00 | 0.00 | 63 | 1095.2 |
| 20260906150044 | 28 | 161 | 1.6 | 1.6 | 0.00 | 0.00 | 0.00 | 63 | 1095.0 |
| 20260906145543 | 27 | 149 | 1.6 | 1.6 | 0.00 | 0.00 | 0.00 | 68 | 1095.2 |
| 20260906145038 | 28 | 156 | 1.6 | 3.2 | 0.00 | 0.00 | 0.00 | 66 | 1095.1 |
| 20260906144532 | 27 | 191 | 3.2 | 4.8 | 0.00 | 0.00 | 0.00 | 70 | 1095.1 |
| 20260906144027 | 26 | 188 | 3.2 | 3.2 | 0.00 | 0.00 | 0.00 | 72 | 1095.0 |
| 20260906143522 | 26 | 219 | 4.8 | 4.8 | 0.00 | 0.00 | 0.00 | 72 | 1095.1 |
| 20260906143020 | 26 | 224 | 3.2 | 3.2 | 0.00 | 0.00 | 0.00 | 74 | 1095.1 |
| 20260906142518 | 26 | 198 | 3.2 | 4.8 | 0.00 | 0.00 | 0.00 | 74 | 1095.0 |
| 20260906142014 | 25 | 222 | 3.2 | 4.8 | 0.00 | 0.00 | 0.00 | 75 | 1094.8 |
| 20260906141513 | 25 | 207 | 4.8 | 4.8 | 0.00 | 0.00 | 0.00 | 76 | 1095.0 |
| 20260906141008 | 25 | 203 | 4.8 | 4.8 | 0.00 | 0.00 | 0.00 | 75 | 1095.0 |
| 20260906140502 | 25 | 220 | 6.4 | 9.7 | 0.00 | 0.00 | 0.00 | 77 | 1094.7 |
| 20260906140001 | 24 | 227 | 8.0 | 9.7 | 0.00 | 0.00 | 0.00 | 78 | 1094.7 |
| 20260906135459 | 24 | 255 | 6.4 | 6.4 | 0.00 | 0.00 | 0.00 | 79 | 1094.7 |
| 20260906134954 | 23 | 224 | 4.8 | 4.8 | 0.00 | 0.00 | 0.00 | 80 | 1094.5 |
| 20260906134450 | 23 | 189 | 3.2 | 4.8 | 0.00 | 0.00 | 0.00 | 81 | 1094.7 |
| 20260906133950 | 23 | 237 | 4.8 | 4.8 | 0.00 | 0.00 | 0.00 | 82 | 1094.7 |
| 20260906133446 | 23 | 233 | 3.2 | 3.2 | 0.00 | 0.00 | 0.00 | 82 | 1094.7 |
| 20260906132942 | 22 | 231 | 3.2 | 4.8 | 0.00 | 0.00 | 0.00 | 83 | 1094.6 |
| 20260906132437 | 22 | 174 | 4.8 | 6.4 | 0.00 | 0.00 | 0.00 | 84 | 1094.6 |
| 20260906131932 | 22 | 197 | 3.2 | 3.2 | 0.00 | 0.00 | 0.00 | 84 | 1094.4 |
| 20260906131427 | 22 | 189 | 3.2 | 4.8 | 0.00 | 0.00 | 0.00 | 84 | 1094.6 |
| 20260906130923 | 22 | 221 | 6.4 | 6.4 | 0.00 | 0.00 | 0.00 | 85 | 1094.2 |
| 20260906130422 | 22 | 199 | 4.8 | 4.8 | 0.00 | 0.00 | 0.00 | 86 | 1094.3 |
| 20260906125922 | 21 | 184 | 4.8 | 4.8 | 0.00 | 0.00 | 0.00 | 86 | 1094.4 |
| 20260906125420 | 21 | 181 | 1.6 | 3.2 | 0.00 | 0.00 | 0.00 | 86 | 1094.5 |
| 20260906124914 | 21 | 194 | 3.2 | 3.2 | 0.00 | 0.00 | 0.00 | 87 | 1094.3 |
| 20260906124410 | 21 | 191 | 3.2 | 3.2 | 0.00 | 0.00 | 0.00 | 87 | 1094.2 |
| 20260906123910 | 21 | 176 | 1.6 | 3.2 | 0.00 | 0.00 | 0.00 | 87 | 1094.3 |
| 20260906123404 | 21 | 180 | 3.2 | 3.2 | 0.00 | 0.00 | 0.00 | 87 | 1094.3 |
| 20260906122903 | 21 | 196 | 4.8 | 4.8 | 0.00 | 0.00 | 0.00 | 87 | 1094.1 |
| 20260906122358 | 21 | 234 | 4.8 | 4.8 | 0.00 | 0.00 | 0.00 | 87 | 1094.0 |
| 20260906121855 | 21 | 216 | 3.2 | 3.2 | 0.00 | 0.00 | 0.00 | 87 | 1093.9 |
| 20260906121351 | 21 | 180 | 3.2 | 3.2 | 0.00 | 0.00 | 0.00 | 87 | 1094.0 |
| 20260906120847 | 21 | 214 | 3.2 | 3.2 | 0.00 | 0.00 | 0.00 | 87 | 1093.6 |
| 20260906120343 | 21 | 187 | 3.2 | 3.2 | 0.00 | 0.00 | 0.00 | 87 | 1094.0 |
| 20260906115839 | 21 | 165 | 3.2 | 3.2 | 0.00 | 0.00 | 0.00 | 87 | 1093.6 |
| 20260906115334 | 21 | 198 | 1.6 | 1.6 | 0.00 | 0.00 | 0.00 | 86 | 1093.7 |
| 20260906114833 | 21 | 216 | 3.2 | 3.2 | 0.00 | 0.00 | 0.00 | 86 | 1093.4 |
| 20260906114328 | 21 | 224 | 3.2 | 4.8 | 0.00 | 0.00 | 0.00 | 86 | 1093.2 |
| 20260906113824 | 21 | 228 | 3.2 | 4.8 | 0.00 | 0.00 | 0.00 | 85 | 1093.6 |
| 20260906113323 | 21 | 225 | 6.4 | 6.4 | 0.00 | 0.00 | 0.00 | 85 | 1093.6 |
| 20260906112818 | 21 | 251 | 3.2 | 4.8 | 0.00 | 0.00 | 0.00 | 85 | 1093.4 |
| 20260906112314 | 22 | 213 | 3.2 | 4.8 | 0.00 | 0.00 | 0.00 | 84 | 1093.5 |
| 20260906111814 | 22 | 203 | 4.8 | 4.8 | 0.00 | 0.00 | 0.00 | 84 | 1093.4 |
| 20260906111313 | 22 | 191 | 3.2 | 4.8 | 0.00 | 0.00 | 0.00 | 84 | 1093.3 |
| 20260906110809 | 22 | 207 | 3.2 | 4.8 | 0.00 | 0.00 | 0.00 | 84 | 1093.3 |
| 20260906110305 | 22 | 182 | 3.2 | 3.2 | 0.00 | 0.00 | 0.00 | 83 | 1093.4 |
| 20260906105803 | 22 | 191 | 4.8 | 6.4 | 0.00 | 0.00 | 0.00 | 83 | 1093.2 |
| 20260906105259 | 22 | 235 | 3.2 | 4.8 | 0.00 | 0.00 | 0.00 | 83 | 1093.3 |
| 20260906104754 | 22 | 211 | 3.2 | 4.8 | 0.00 | 0.00 | 0.00 | 83 | 1093.2 |
| 20260906104254 | 22 | 182 | 1.6 | 3.2 | 0.00 | 0.00 | 0.00 | 82 | 1093.3 |
| 20260906103752 | 22 | 201 | 4.8 | 6.4 | 0.00 | 0.00 | 0.00 | 82 | 1093.3 |
| 20260906103251 | 22 | 198 | 3.2 | 3.2 | 0.00 | 0.00 | 0.00 | 82 | 1093.2 |
| 20260906102747 | 22 | 200 | 3.2 | 3.2 | 0.00 | 0.00 | 0.00 | 81 | 1093.3 |
| 20260906102246 | 22 | 179 | 3.2 | 4.8 | 0.00 | 0.00 | 0.00 | 81 | 1093.2 |
| 20260906101741 | 22 | 198 | 6.4 | 6.4 | 0.00 | 0.00 | 0.00 | 81 | 1093.1 |
| 20260906101236 | 22 | 213 | 4.8 | 4.8 | 0.00 | 0.00 | 0.00 | 81 | 1093.3 |
| 20260906100732 | 22 | 241 | 8.0 | 11.3 | 0.00 | 0.00 | 0.00 | 81 | 1092.8 |
| 20260906100231 | 22 | 190 | 6.4 | 9.7 | 0.00 | 0.00 | 0.00 | 81 | 1093.1 |
| 20260906095727 | 22 | 186 | 6.4 | 6.4 | 0.00 | 0.00 | 0.00 | 82 | 1093.0 |
| 20260906095222 | 22 | 193 | 6.4 | 6.4 | 0.00 | 0.00 | 0.00 | 82 | 1092.9 |
| 20260906094720 | 22 | 219 | 4.8 | 4.8 | 0.00 | 0.00 | 0.00 | 82 | 1092.8 |
| 20260906094216 | 22 | 187 | 3.2 | 4.8 | 0.00 | 0.00 | 0.00 | 82 | 1093.1 |
| 20260906093712 | 22 | 226 | 4.8 | 4.8 | 0.00 | 0.00 | 0.00 | 82 | 1092.9 |
| 20260906093208 | 22 | 240 | 4.8 | 6.4 | 0.00 | 0.00 | 0.00 | 82 | 1092.9 |
| 20260906092703 | 22 | 229 | 3.2 | 4.8 | 0.00 | 0.00 | 0.00 | 82 | 1093.1 |
| 20260906092202 | 22 | 202 | 3.2 | 3.2 | 0.00 | 0.00 | 0.00 | 82 | 1093.0 |
| 20260906091658 | 22 | 204 | 4.8 | 4.8 | 0.00 | 0.00 | 0.00 | 82 | 1092.9 |
| 20260906091154 | 22 | 228 | 4.8 | 6.4 | 0.00 | 0.00 | 0.00 | 81 | 1092.7 |
| 20260906090650 | 22 | 225 | 4.8 | 4.8 | 0.00 | 0.00 | 0.00 | 80 | 1093.0 |
| 20260906090150 | 23 | 179 | 4.8 | 4.8 | 0.00 | 0.00 | 0.00 | 79 | 1092.9 |
| 20260906085649 | 23 | 188 | 3.2 | 4.8 | 0.00 | 0.00 | 0.00 | 78 | 1092.8 |
| 20260906085148 | 23 | 217 | 4.8 | 4.8 | 0.00 | 0.00 | 0.00 | 77 | 1092.7 |
| 20260906084643 | 23 | 216 | 6.4 | 6.4 | 0.00 | 0.00 | 0.00 | 77 | 1092.8 |
| 20260906084142 | 23 | 206 | 4.8 | 4.8 | 0.00 | 0.00 | 0.00 | 76 | 1093.0 |
| 20260906083637 | 23 | 172 | 4.8 | 6.4 | 0.00 | 0.00 | 0.00 | 76 | 1092.9 |
| 20260906083132 | 23 | 168 | 4.8 | 6.4 | 0.00 | 0.00 | 0.00 | 77 | 1092.9 |
| 20260906082628 | 23 | 210 | 4.8 | 6.4 | 0.00 | 0.00 | 0.00 | 77 | 1092.9 |
| 20260906082123 | 23 | 189 | 4.8 | 6.4 | 0.00 | 0.00 | 0.00 | 77 | 1093.3 |
| 20260906081619 | 23 | 205 | 6.4 | 9.7 | 0.00 | 0.00 | 0.00 | 77 | 1092.7 |
| 20260906081114 | 23 | 209 | 6.4 | 6.4 | 0.00 | 0.00 | 0.00 | 77 | 1093.1 |
| 20260906080611 | 23 | 170 | 4.8 | 4.8 | 0.00 | 0.00 | 0.00 | 77 | 1092.9 |
| 20260906080107 | 23 | 181 | 3.2 | 3.2 | 0.00 | 0.00 | 0.00 | 77 | 1093.0 |
| 20260906075606 | 23 | 202 | 3.2 | 3.2 | 0.00 | 0.00 | 0.00 | 77 | 1093.0 |
| 20260906075101 | 23 | 179 | 3.2 | 3.2 | 0.00 | 0.00 | 0.00 | 77 | 1093.0 |
| 20260906074556 | 23 | 176 | 1.6 | 3.2 | 0.00 | 0.00 | 0.00 | 77 | 1093.0 |
| 20260906074055 | 23 | 206 | 3.2 | 3.2 | 0.00 | 0.00 | 0.00 | 77 | 1092.9 |
| 20260906073550 | 23 | 206 | 3.2 | 3.2 | 0.00 | 0.00 | 0.00 | 77 | 1092.9 |
| 20260906073046 | 23 | 188 | 3.2 | 3.2 | 0.00 | 0.00 | 0.00 | 77 | 1093.2 |
| 20260906072541 | 23 | 188 | 3.2 | 3.2 | 0.00 | 0.00 | 0.00 | 77 | 1093.1 |
| 20260906072037 | 23 | 173 | 1.6 | 1.6 | 0.00 | 0.00 | 0.00 | 76 | 1093.1 |
| 20260906071533 | 23 | 204 | 1.6 | 1.6 | 0.00 | 0.00 | 0.00 | 76 | 1093.2 |
| 20260906071028 | 24 | 177 | 1.6 | 3.2 | 0.00 | 0.00 | 0.00 | 75 | 1093.4 |
| 20260906070524 | 24 | 210 | 1.6 | 3.2 | 0.00 | 0.00 | 0.00 | 75 | 1093.4 |
| 20260906070020 | 24 | 175 | 1.6 | 1.6 | 0.00 | 0.00 | 0.00 | 75 | 1093.4 |
| 20260906065519 | 24 | 198 | 1.6 | 1.6 | 0.00 | 0.00 | 0.00 | 75 | 1093.5 |
| 20260906065015 | 25 | 173 | 3.2 | 3.2 | 0.00 | 0.00 | 0.00 | 74 | 1093.4 |
| 20260906064511 | 25 | 198 | 1.6 | 1.6 | 0.00 | 0.00 | 0.00 | 74 | 1093.5 |
| 20260906064011 | 25 | 200 | 3.2 | 3.2 | 0.00 | 0.00 | 0.00 | 73 | 1093.5 |
| 20260906063506 | 25 | 214 | 1.6 | 3.2 | 0.00 | 0.00 | 0.00 | 73 | 1093.4 |
| 20260906063001 | 25 | 201 | 3.2 | 4.8 | 0.00 | 0.00 | 0.00 | 73 | 1093.5 |
| 20260906062456 | 25 | 184 | 3.2 | 4.8 | 0.00 | 0.00 | 0.00 | 73 | 1093.6 |
| 20260906061952 | 25 | 166 | 3.2 | 3.2 | 0.00 | 0.00 | 0.00 | 72 | 1093.5 |
| 20260906061448 | 25 | 194 | 4.8 | 4.8 | 0.00 | 0.00 | 0.00 | 72 | 1093.6 |
| 20260906060947 | 25 | 196 | 3.2 | 4.8 | 0.00 | 0.00 | 0.00 | 72 | 1093.9 |
| 20260906060444 | 25 | 201 | 3.2 | 4.8 | 0.00 | 0.00 | 0.00 | 72 | 1093.6 |
| 20260906055941 | 25 | 196 | 3.2 | 4.8 | 0.00 | 0.00 | 0.00 | 71 | 1093.6 |
| 20260906055436 | 25 | 168 | 3.2 | 4.8 | 0.00 | 0.00 | 0.00 | 71 | 1093.7 |
| 20260906054932 | 25 | 190 | 3.2 | 3.2 | 0.00 | 0.00 | 0.00 | 71 | 1093.5 |
| 20260906054426 | 25 | 174 | 4.8 | 4.8 | 0.00 | 0.00 | 0.00 | 70 | 1093.5 |
| 20260906053922 | 25 | 176 | 3.2 | 4.8 | 0.00 | 0.00 | 0.00 | 70 | 1094.0 |
| 20260906053418 | 25 | 170 | 3.2 | 3.2 | 0.00 | 0.00 | 0.00 | 70 | 1093.6 |
| 20260906052914 | 26 | 174 | 6.4 | 6.4 | 0.00 | 0.00 | 0.00 | 70 | 1093.6 |
| 20260906052410 | 26 | 175 | 4.8 | 4.8 | 0.00 | 0.00 | 0.00 | 69 | 1093.6 |
| 20260906051906 | 26 | 201 | 3.2 | 4.8 | 0.00 | 0.00 | 0.00 | 69 | 1093.6 |
| 20260906051406 | 26 | 180 | 4.8 | 6.4 | 0.00 | 0.00 | 0.00 | 69 | 1094.0 |
| 20260906050902 | 26 | 196 | 4.8 | 4.8 | 0.00 | 0.00 | 0.00 | 68 | 1094.1 |
| 20260906050357 | 26 | 198 | 3.2 | 4.8 | 0.00 | 0.00 | 0.00 | 68 | 1094.0 |
| 20260906045856 | 26 | 180 | 1.6 | 1.6 | 0.00 | 0.00 | 0.00 | 67 | 1093.9 |
| 20260906045355 | 26 | 204 | 3.2 | 4.8 | 0.00 | 0.00 | 0.00 | 66 | 1093.9 |
| 20260906044852 | 26 | 168 | 3.2 | 4.8 | 0.00 | 0.00 | 0.00 | 66 | 1094.0 |
| 20260906044351 | 26 | 202 | 6.4 | 6.4 | 0.00 | 0.00 | 0.00 | 65 | 1094.0 |
| 20260906043847 | 27 | 183 | 4.8 | 4.8 | 0.00 | 0.00 | 0.00 | 65 | 1094.0 |
| 20260906043343 | 27 | 208 | 3.2 | 4.8 | 0.00 | 0.00 | 0.00 | 65 | 1094.0 |
| 20260906042838 | 27 | 214 | 6.4 | 6.4 | 0.00 | 0.00 | 0.00 | 65 | 1093.7 |
| 20260906042337 | 27 | 196 | 6.4 | 6.4 | 0.00 | 0.00 | 0.00 | 64 | 1093.4 |
| 20260906041833 | 27 | 180 | 6.4 | 9.7 | 0.00 | 0.00 | 0.00 | 64 | 1093.7 |
| 20260906041328 | 27 | 202 | 6.4 | 6.4 | 0.00 | 0.00 | 0.00 | 64 | 1093.7 |
| 20260906040828 | 27 | 213 | 3.2 | 4.8 | 0.00 | 0.00 | 0.00 | 63 | 1093.9 |
| 20260906040323 | 27 | 194 | 3.2 | 4.8 | 0.00 | 0.00 | 0.00 | 63 | 1093.9 |
| 20260906035819 | 27 | 186 | 6.4 | 9.7 | 0.00 | 0.00 | 0.00 | 62 | 1093.9 |
| 20260906035314 | 27 | 172 | 4.8 | 4.8 | 0.00 | 0.00 | 0.00 | 62 | 1093.9 |
| 20260906034810 | 28 | 198 | 9.7 | 11.3 | 0.00 | 0.00 | 0.00 | 61 | 1093.9 |
| 20260906034309 | 28 | 230 | 4.8 | 4.8 | 0.00 | 0.00 | 0.00 | 61 | 1093.6 |
| 20260906033805 | 28 | 179 | 3.2 | 4.8 | 0.00 | 0.00 | 0.00 | 60 | 1093.6 |
| 20260906033304 | 28 | 227 | 4.8 | 4.8 | 0.00 | 0.00 | 0.00 | 60 | 1093.5 |
| 20260906032801 | 28 | 176 | 3.2 | 4.8 | 0.00 | 0.00 | 0.00 | 60 | 1093.4 |
| 20260906032256 | 28 | 219 | 4.8 | 4.8 | 0.00 | 0.00 | 0.00 | 59 | 1093.3 |
| 20260906031751 | 28 | 199 | 4.8 | 4.8 | 0.00 | 0.00 | 0.00 | 59 | 1093.3 |
| 20260906031247 | 28 | 177 | 8.0 | 9.7 | 0.00 | 0.00 | 0.00 | 58 | 1093.0 |
| 20260906030746 | 28 | 194 | 6.4 | 6.4 | 0.00 | 0.00 | 0.00 | 58 | 1093.1 |
| 20260906030241 | 28 | 149 | 6.4 | 6.4 | 0.00 | 0.00 | 0.00 | 58 | 1093.0 |
| 20260906025741 | 29 | 196 | 9.7 | 11.3 | 0.00 | 0.00 | 0.00 | 57 | 1092.7 |
| 20260906025235 | 29 | 214 | 6.4 | 6.4 | 0.00 | 0.00 | 0.00 | 57 | 1092.8 |
| 20260906024734 | 29 | 186 | 9.7 | 11.3 | 0.00 | 0.00 | 0.00 | 57 | 1092.8 |
| 20260906024233 | 29 | 209 | 6.4 | 6.4 | 0.00 | 0.00 | 0.00 | 56 | 1092.5 |
| 20260906023729 | 30 | 196 | 6.4 | 6.4 | 0.00 | 0.00 | 0.00 | 56 | 1092.5 |
| 20260906023225 | 30 | 194 | 6.4 | 9.7 | 0.00 | 0.00 | 0.00 | 56 | 1092.2 |
| 20260906022720 | 30 | 189 | 8.0 | 9.7 | 0.00 | 0.00 | 0.00 | 55 | 1092.3 |
| 20260906022215 | 30 | 196 | 8.0 | 9.7 | 0.00 | 0.00 | 0.00 | 55 | 1092.2 |
| 20260906021711 | 30 | 254 | 9.7 | 11.3 | 0.00 | 0.00 | 0.00 | 55 | 1091.7 |
| 20260906021209 | 30 | 161 | 6.4 | 6.4 | 0.00 | 0.00 | 0.00 | 55 | 1091.7 |
| 20260906020706 | 30 | 161 | 6.4 | 11.3 | 0.00 | 0.00 | 0.00 | 54 | 1091.7 |
| 20260906020200 | 30 | 195 | 9.7 | 12.9 | 0.00 | 0.00 | 0.00 | 54 | 1091.7 |
| 20260906015659 | 30 | 215 | 8.0 | 11.3 | 0.00 | 0.00 | 0.00 | 54 | 1091.6 |
| 20260906015158 | 31 | 199 | 6.4 | 6.4 | 0.00 | 0.00 | 0.00 | 54 | 1091.5 |
| 20260906014658 | 31 | 191 | 9.7 | 12.9 | 0.00 | 0.00 | 0.00 | 54 | 1091.5 |
| 20260906014154 | 31 | 245 | 9.7 | 11.3 | 0.00 | 0.00 | 0.00 | 53 | 1091.4 |
| 20260906013650 | 31 | 190 | 12.9 | 17.7 | 0.00 | 0.00 | 0.00 | 53 | 1091.4 |
| 20260906013145 | 31 | 246 | 9.7 | 11.3 | 0.00 | 0.00 | 0.00 | 53 | 1091.3 |
| 20260906012645 | 31 | 210 | 6.4 | 9.7 | 0.00 | 0.00 | 0.00 | 53 | 1091.1 |
| 20260906012145 | 31 | 230 | 9.7 | 11.3 | 0.00 | 0.00 | 0.00 | 53 | 1091.5 |
| 20260906011641 | 31 | 193 | 11.3 | 12.9 | 0.00 | 0.00 | 0.00 | 52 | 1091.3 |
| 20260906011136 | 32 | 167 | 6.4 | 9.7 | 0.00 | 0.00 | 0.00 | 52 | 1090.9 |
| 20260906010632 | 32 | 157 | 11.3 | 16.1 | 0.00 | 0.00 | 0.00 | 52 | 1091.1 |
| 20260906010128 | 32 | 228 | 12.9 | 16.1 | 0.00 | 0.00 | 0.00 | 51 | 1091.0 |
| 20260906005627 | 32 | 184 | 8.0 | 11.3 | 0.00 | 0.00 | 0.00 | 51 | 1091.1 |
| 20260906005126 | 32 | 200 | 14.5 | 16.1 | 0.00 | 0.00 | 0.00 | 50 | 1090.7 |
| 20260906004625 | 32 | 210 | 17.7 | 22.5 | 0.00 | 0.00 | 0.00 | 49 | 1091.1 |
| 20260906004120 | 33 | 152 | 9.7 | 12.9 | 0.00 | 0.00 | 0.00 | 48 | 1091.1 |
| 20260906003616 | 33 | 207 | 12.9 | 16.1 | 0.00 | 0.00 | 0.00 | 47 | 1090.9 |
| 20260906003112 | 33 | 139 | 3.2 | 4.8 | 0.00 | 0.00 | 0.00 | 44 | 1090.9 |
| 20260906002612 | 33 | 177 | 6.4 | 6.4 | 0.00 | 0.00 | 0.00 | 43 | 1090.8 |
| 20260906002107 | 33 | 171 | 9.7 | 12.9 | 0.00 | 0.00 | 0.00 | 43 | 1090.9 |
| 20260906001557 | 34 | 154 | 4.8 | 9.7 | 0.00 | 0.00 | 0.00 | 43 | 1090.8 |
| 20260906001056 | 34 | 177 | 4.8 | 6.4 | 0.00 | 0.00 | 0.00 | 42 | 1091.0 |
| 20260906000553 | 35 | 177 | 11.3 | 14.5 | 0.00 | 0.00 | 0.00 | 42 | 1090.8 |
| 20260906000048 | 35 | 192 | 12.9 | 20.9 | 0.00 | 0.00 | 0.00 | 41 | 1090.8 |
| 20260905235547 | 35 | 178 | 6.4 | 12.9 | 0.00 | 0.00 | 0.00 | 40 | 1090.9 |
| 20260905235042 | 35 | 172 | 6.4 | 9.7 | 0.00 | 0.00 | 0.00 | 41 | 1090.7 |
| 20260905234537 | 36 | 174 | 1.6 | 3.2 | 0.00 | 0.00 | 0.00 | 40 | 1090.9 |
| 20260905234032 | 35 | 191 | 11.3 | 14.5 | 0.00 | 0.00 | 0.00 | 41 | 1090.7 |
| 20260905233532 | 36 | 181 | 11.3 | 14.5 | 0.00 | 0.00 | 0.00 | 40 | 1090.6 |
| 20260905233032 | 36 | 128 | 4.8 | 11.3 | 0.00 | 0.00 | 0.00 | 40 | 1090.4 |
| 20260905232528 | 36 | 159 | 6.4 | 9.7 | 0.00 | 0.00 | 0.00 | 40 | 1090.2 |
| 20260905232023 | 36 | 153 | 8.0 | 14.5 | 0.00 | 0.00 | 0.00 | 40 | 1090.3 |
| 20260905231518 | 36 | 184 | 6.4 | 11.3 | 0.00 | 0.00 | 0.00 | 40 | 1090.0 |
| 20260905231015 | 36 | 145 | 3.2 | 4.8 | 0.00 | 0.00 | 0.00 | 41 | 1090.3 |
| 20260905230514 | 35 | 92 | 9.7 | 11.3 | 0.00 | 0.00 | 0.00 | 44 | 1090.2 |
| 20260905230012 | 35 | 280 | 4.8 | 4.8 | 0.00 | 0.00 | 0.00 | 44 | 1090.2 |